Time;durP1;ratioP1;P1;durP2;ratioP2;P2;SDS_P1;SDS_P2;PMS_P1;PMS_P2;Temp;Humidity;BMP_temperature;BMP_pressure;BME280_temperature;BME280_humidity;BME280_pressure;Samples;Min_cycle;Max_cycle;Signal;HPM_P1;HPM_P2
2021/08/22 00:02:32;;;;;;;5.20;4.70;;;;;;;;;;4996664;28;20178;-83
2021/08/22 00:04:58;;;;;;;4.87;4.33;;;;;;;;;;4996205;28;20179;-83
2021/08/22 00:07:24;;;;;;;4.63;4.17;;;;;;;;;;4997246;28;20212;-82
2021/08/22 00:09:51;;;;;;;4.73;4.23;;;;;;;;;;4997997;28;20271;-82
2021/08/22 00:12:17;;;;;;;5.13;4.37;;;;;;;;;;5012821;28;20685;-82
2021/08/22 00:14:43;;;;;;;3.73;3.43;;;;;;;;;;4998220;28;20229;-82
2021/08/22 00:17:09;;;;;;;3.63;3.27;;;;;;;;;;5007993;28;20178;-82
2021/08/22 00:19:38;;;;;;;5.33;3.53;;;;;;;;;;4996733;28;20189;-83
2021/08/22 00:22:04;;;;;;;3.63;3.27;;;;;;;;;;4996798;28;20720;-83
2021/08/22 00:24:30;;;;;;;3.90;3.57;;;;;;;;;;4996213;28;20226;-82
2021/08/22 00:27:03;;;;;;;4.93;3.80;;;;;;;;;;5013480;28;20192;-82
2021/08/22 00:29:32;;;;;;;5.30;3.50;;;;;;;;;;4995840;28;20282;-82
2021/08/22 00:31:58;;;;;;;7.00;4.70;;;;;;;;;;5010267;28;20201;-82
2021/08/22 00:34:24;;;;;;;5.40;3.83;;;;;;;;;;4995854;28;20178;-82
2021/08/22 00:37:08;;;;;;;3.93;3.23;;;;;;;;;;5012611;28;20277;-82
2021/08/22 00:39:37;;;;;;;3.40;3.10;;;;;;;;;;4998266;28;20173;-82
2021/08/22 00:42:09;;;;;;;4.03;3.20;;;;;;;;;;5013136;28;20184;-82
2021/08/22 00:44:35;;;;;;;3.67;3.27;;;;;;;;;;5010599;28;20204;-83
2021/08/22 00:47:13;;;;;;;4.73;3.40;;;;;;;;;;4998220;28;20210;-83
2021/08/22 00:49:39;;;;;;;4.07;2.70;;;;;;;;;;5006136;28;20282;-82
2021/08/22 00:52:08;;;;;;;3.00;2.70;;;;;;;;;;4996207;28;20209;-82
2021/08/22 00:54:38;;;;;;;3.23;2.53;;;;;;;;;;4995900;28;20208;-82
2021/08/22 00:57:04;;;;;;;3.73;3.13;;;;;;;;;;5016072;28;20221;-82
2021/08/22 00:59:30;;;;;;;3.90;3.03;;;;;;;;;;5013278;28;20578;-82
2021/08/22 01:01:58;;;;;;;2.73;2.50;;;;;;;;;;5037414;28;20202;-82
2021/08/22 01:04:27;;;;;;;2.97;2.57;;;;;;;;;;5036482;28;20182;-82
2021/08/22 01:06:53;;;;;;;3.47;2.87;;;;;;;;;;5030412;28;20203;-82
2021/08/22 01:09:22;;;;;;;3.10;2.80;;;;;;;;;;5032931;28;20186;-83
2021/08/22 01:11:49;;;;;;;3.20;2.90;;;;;;;;;;5033810;28;20294;-82
2021/08/22 01:14:17;;;;;;;2.77;2.40;;;;;;;;;;5017166;28;20176;-82
2021/08/22 01:16:49;;;;;;;3.30;3.00;;;;;;;;;;5017187;28;20186;-82
2021/08/22 01:19:34;;;;;;;3.65;2.75;;;;;;;;;;5015832;28;20418;-82
2021/08/22 01:22:01;;;;;;;4.53;2.80;;;;;;;;;;5032858;28;20180;-82
2021/08/22 01:24:28;;;;;;;3.77;2.40;;;;;;;;;;5034695;28;20234;-83
2021/08/22 01:26:56;;;;;;;2.97;2.27;;;;;;;;;;5032531;28;20206;-82
2021/08/22 01:29:28;;;;;;;3.43;2.80;;;;;;;;;;5034038;28;21002;-82
2021/08/22 01:31:59;;;;;;;3.43;2.77;;;;;;;;;;5016386;28;20203;-82
2021/08/22 01:34:25;;;;;;;3.00;2.70;;;;;;;;;;5011872;28;20187;-82
2021/08/22 01:36:51;;;;;;;2.63;2.43;;;;;;;;;;5013028;28;20283;-82
2021/08/22 01:39:19;;;;;;;3.10;2.60;;;;;;;;;;5026965;28;20491;-82
2021/08/22 01:41:45;;;;;;;2.87;2.43;;;;;;;;;;5033430;28;20189;-82
2021/08/22 01:44:14;;;;;;;3.90;2.37;;;;;;;;;;5034255;28;20192;-82
2021/08/22 01:46:41;;;;;;;3.30;2.63;;;;;;;;;;5032955;28;20185;-82
2021/08/22 01:49:08;;;;;;;2.60;2.40;;;;;;;;;;5032320;28;21005;-82
2021/08/22 01:51:35;;;;;;;2.70;2.50;;;;;;;;;;5031478;28;20643;-82
2021/08/22 01:54:02;;;;;;;2.60;2.20;;;;;;;;;;5034424;28;20174;-82
2021/08/22 01:56:29;;;;;;;3.13;2.07;;;;;;;;;;5033512;28;20289;-82
2021/08/22 01:58:55;;;;;;;3.60;2.37;;;;;;;;;;5016128;28;20292;-82
2021/08/22 02:01:21;;;;;;;3.93;2.37;;;;;;;;;;5033315;28;20627;-83
2021/08/22 02:03:51;;;;;;;2.77;2.57;;;;;;;;;;5033133;28;20242;-82
2021/08/22 02:06:35;;;;;;;2.50;2.10;;;;;;;;;;5033468;28;20209;-83
2021/08/22 02:09:03;;;;;;;2.70;2.20;;;;;;;;;;5034202;28;20730;-82
2021/08/22 02:11:37;;;;;;;2.73;2.50;;;;;;;;;;5035666;28;20267;-82
2021/08/22 02:14:04;;;;;;;2.40;2.20;;;;;;;;;;5034289;28;20180;-82
2021/08/22 02:16:31;;;;;;;2.27;2.07;;;;;;;;;;5017810;28;20279;-82
2021/08/22 02:18:59;;;;;;;3.17;2.87;;;;;;;;;;5037573;28;20181;-83
2021/08/22 02:21:25;;;;;;;2.40;2.20;;;;;;;;;;5018914;28;20193;-82
2021/08/22 02:23:54;;;;;;;2.33;2.00;;;;;;;;;;5033707;28;20181;-82
2021/08/22 02:26:24;;;;;;;2.30;2.10;;;;;;;;;;5043767;28;20254;-83
2021/08/22 02:28:54;;;;;;;3.10;2.57;;;;;;;;;;5032694;28;20482;-82
2021/08/22 02:31:20;;;;;;;2.63;2.37;;;;;;;;;;5015366;28;20453;-83
2021/08/22 02:33:46;;;;;;;2.67;2.10;;;;;;;;;;5033003;28;20178;-82
2021/08/22 02:36:12;;;;;;;2.90;2.50;;;;;;;;;;5031250;28;20691;-83
2021/08/22 02:38:38;;;;;;;2.33;2.03;;;;;;;;;;5032322;28;20405;-82
2021/08/22 02:41:05;;;;;;;2.60;2.20;;;;;;;;;;5015338;28;20549;-82
2021/08/22 02:43:31;;;;;;;3.00;2.10;;;;;;;;;;5032325;28;20188;-82
2021/08/22 02:45:57;;;;;;;2.50;2.30;;;;;;;;;;5030188;28;20668;-82
2021/08/22 02:48:23;;;;;;;3.13;2.60;;;;;;;;;;5032080;28;20181;-82
2021/08/22 02:50:49;;;;;;;2.47;2.10;;;;;;;;;;5014852;28;20266;-82
2021/08/22 02:53:15;;;;;;;2.67;1.87;;;;;;;;;;5031359;28;20261;-82
2021/08/22 02:55:41;;;;;;;2.30;1.80;;;;;;;;;;5039982;28;20506;-83
2021/08/22 02:58:07;;;;;;;3.07;2.30;;;;;;;;;;5030810;28;20844;-82
2021/08/22 03:00:33;;;;;;;2.53;2.10;;;;;;;;;;5031397;28;20632;-83
2021/08/22 03:02:59;;;;;;;1.77;1.67;;;;;;;;;;5031351;28;20197;-82
2021/08/22 03:05:25;;;;;;;3.03;2.13;;;;;;;;;;5014199;28;20262;-82
2021/08/22 03:07:51;;;;;;;2.57;2.30;;;;;;;;;;5014379;28;20873;-82
2021/08/22 03:10:18;;;;;;;3.10;2.77;;;;;;;;;;5015358;28;20188;-82
2021/08/22 03:12:44;;;;;;;3.47;2.80;;;;;;;;;;5030385;28;20221;-82
2021/08/22 03:15:10;;;;;;;2.80;2.53;;;;;;;;;;5014612;28;20181;-82
2021/08/22 03:17:37;;;;;;;4.03;2.83;;;;;;;;;;5014524;28;20180;-82
2021/08/22 03:20:04;;;;;;;3.13;2.83;;;;;;;;;;5019423;28;20178;-82
2021/08/22 03:22:31;;;;;;;3.50;3.20;;;;;;;;;;5031193;28;20320;-82
2021/08/22 03:24:57;;;;;;;3.37;2.97;;;;;;;;;;5013788;28;20217;-82
2021/08/22 03:27:23;;;;;;;3.73;3.03;;;;;;;;;;5030465;28;20549;-82
2021/08/22 03:29:49;;;;;;;4.23;3.20;;;;;;;;;;5032671;28;20194;-82
2021/08/22 03:32:15;;;;;;;4.30;3.00;;;;;;;;;;5014347;28;20201;-82
2021/08/22 03:34:41;;;;;;;4.30;3.43;;;;;;;;;;5030361;28;20244;-82
2021/08/22 03:37:07;;;;;;;4.43;3.67;;;;;;;;;;5030799;28;20219;-82
2021/08/22 03:39:34;;;;;;;3.90;3.33;;;;;;;;;;5013129;28;20187;-82
2021/08/22 03:42:00;;;;;;;3.43;3.07;;;;;;;;;;5030403;28;20681;-82
2021/08/22 03:44:29;;;;;;;4.63;2.50;;;;;;;;;;5030752;28;20241;-82
2021/08/22 03:46:55;;;;;;;4.13;3.20;;;;;;;;;;5013943;28;20193;-82
2021/08/22 03:49:21;;;;;;;3.50;3.20;;;;;;;;;;5030049;28;20535;-82
2021/08/22 03:51:47;;;;;;;5.37;3.67;;;;;;;;;;5030773;28;20590;-82
2021/08/22 03:54:13;;;;;;;3.60;3.30;;;;;;;;;;5013569;28;20181;-82
2021/08/22 03:56:40;;;;;;;4.23;3.47;;;;;;;;;;5031002;28;20261;-82
2021/08/22 03:59:07;;;;;;;3.87;3.33;;;;;;;;;;5021009;28;20228;-82
2021/08/22 04:01:34;;;;;;;3.70;3.33;;;;;;;;;;5030587;28;20192;-82
2021/08/22 04:04:01;;;;;;;4.23;3.47;;;;;;;;;;5010702;28;20288;-82
2021/08/22 04:06:28;;;;;;;3.47;3.17;;;;;;;;;;5013093;28;20291;-82
2021/08/22 04:08:54;;;;;;;3.60;3.30;;;;;;;;;;5030017;28;20180;-82
2021/08/22 04:11:20;;;;;;;8.60;2.97;;;;;;;;;;5031360;28;20174;-82
2021/08/22 04:13:46;;;;;;;3.43;3.00;;;;;;;;;;5030475;28;20217;-83
2021/08/22 04:16:12;;;;;;;4.37;3.30;;;;;;;;;;5013767;28;20197;-82
2021/08/22 04:18:39;;;;;;;3.30;3.00;;;;;;;;;;5031063;28;20236;-82
2021/08/22 04:21:05;;;;;;;3.50;3.17;;;;;;;;;;5030753;28;20185;-82
2021/08/22 04:23:34;;;;;;;3.20;2.90;;;;;;;;;;5030422;28;20276;-82
2021/08/22 04:26:00;;;;;;;4.97;3.40;;;;;;;;;;5030981;28;20174;-82
2021/08/22 04:28:27;;;;;;;3.63;3.33;;;;;;;;;;5029772;28;20172;-82
2021/08/22 04:30:53;;;;;;;3.90;3.50;;;;;;;;;;5030952;28;20186;-82
2021/08/22 04:33:19;;;;;;;4.43;4.03;;;;;;;;;;5029523;28;20368;-82
2021/08/22 04:35:45;;;;;;;4.30;3.63;;;;;;;;;;5028873;28;20177;-82
2021/08/22 04:38:11;;;;;;;4.30;3.77;;;;;;;;;;5029587;28;20705;-82
2021/08/22 04:40:38;;;;;;;3.90;3.50;;;;;;;;;;5030643;28;20174;-82
2021/08/22 04:43:05;;;;;;;4.50;4.10;;;;;;;;;;5029425;28;20177;-82
2021/08/22 04:45:31;;;;;;;4.17;3.77;;;;;;;;;;5012857;28;20595;-82
2021/08/22 04:47:57;;;;;;;5.80;4.40;;;;;;;;;;5029545;28;20256;-82
2021/08/22 04:50:23;;;;;;;5.37;4.57;;;;;;;;;;5037067;28;20255;-82
2021/08/22 04:52:49;;;;;;;6.17;5.23;;;;;;;;;;5030221;28;20202;-82
2021/08/22 04:55:16;;;;;;;5.33;4.83;;;;;;;;;;5031159;28;20178;-82
2021/08/22 04:57:42;;;;;;;5.23;4.53;;;;;;;;;;5030310;28;20244;-82
2021/08/22 05:00:08;;;;;;;5.63;4.73;;;;;;;;;;5035364;28;20597;-82
2021/08/22 05:02:34;;;;;;;5.80;5.30;;;;;;;;;;5031438;28;20865;-82
2021/08/22 05:05:00;;;;;;;5.97;5.47;;;;;;;;;;5012768;28;20217;-82
2021/08/22 05:07:27;;;;;;;5.17;4.67;;;;;;;;;;5029850;28;20206;-82
2021/08/22 05:09:53;;;;;;;6.10;5.50;;;;;;;;;;5024477;28;20224;-82
2021/08/22 05:12:19;;;;;;;6.60;6.00;;;;;;;;;;5013482;28;20205;-82
2021/08/22 05:14:45;;;;;;;5.80;5.20;;;;;;;;;;5012833;28;20174;-82
2021/08/22 05:17:11;;;;;;;6.23;5.63;;;;;;;;;;5028938;28;20833;-82
2021/08/22 05:19:38;;;;;;;6.53;5.27;;;;;;;;;;5012326;28;20186;-82
2021/08/22 05:22:04;;;;;;;5.70;5.17;;;;;;;;;;5013246;28;20206;-82
2021/08/22 05:24:30;;;;;;;5.93;5.43;;;;;;;;;;5031328;28;20186;-82
2021/08/22 05:26:56;;;;;;;6.43;5.60;;;;;;;;;;5014374;28;20182;-82
2021/08/22 05:29:23;;;;;;;7.77;6.03;;;;;;;;;;5032284;28;20667;-82
2021/08/22 05:31:49;;;;;;;6.77;6.17;;;;;;;;;;5034152;28;20255;-82
2021/08/22 05:34:15;;;;;;;6.87;6.17;;;;;;;;;;5030844;28;20190;-82
2021/08/22 05:36:42;;;;;;;6.77;6.07;;;;;;;;;;5016382;28;20181;-83
2021/08/22 05:39:08;;;;;;;5.90;5.30;;;;;;;;;;5033582;28;20245;-82
2021/08/22 05:41:37;;;;;;;9.87;6.00;;;;;;;;;;5024016;28;20241;-82
2021/08/22 05:44:03;;;;;;;6.50;5.67;;;;;;;;;;5016044;28;20186;-82
2021/08/22 05:46:29;;;;;;;5.70;5.20;;;;;;;;;;5036483;28;20192;-82
2021/08/22 05:48:55;;;;;;;7.03;6.40;;;;;;;;;;5033585;28;20176;-82
2021/08/22 05:51:22;;;;;;;6.00;5.40;;;;;;;;;;5016377;28;20256;-82
2021/08/22 05:53:49;;;;;;;6.90;6.20;;;;;;;;;;5034821;28;20225;-82
2021/08/22 05:56:17;;;;;;;6.17;5.57;;;;;;;;;;5002354;28;20187;-82
2021/08/22 05:58:44;;;;;;;6.50;5.90;;;;;;;;;;5012349;28;20294;-82
2021/08/22 06:01:10;;;;;;;6.60;5.50;;;;;;;;;;4996736;28;20187;-82
2021/08/22 06:03:37;;;;;;;7.23;6.30;;;;;;;;;;4980698;28;20258;-82
2021/08/22 06:06:07;;;;;;;8.27;5.83;;;;;;;;;;5013101;28;20663;-82
2021/08/22 06:08:34;;;;;;;7.50;6.80;;;;;;;;;;4996409;28;20191;-82
2021/08/22 06:11:00;;;;;;;9.63;6.77;;;;;;;;;;5014900;28;20204;-82
2021/08/22 06:13:26;;;;;;;9.13;7.10;;;;;;;;;;5014648;28;20195;-82
2021/08/22 06:15:52;;;;;;;9.43;6.67;;;;;;;;;;4982851;28;20552;-82
2021/08/22 06:18:19;;;;;;;8.20;6.73;;;;;;;;;;4996625;28;20177;-82
2021/08/22 06:20:45;;;;;;;7.93;7.13;;;;;;;;;;4996071;28;20190;-82
2021/08/22 06:23:11;;;;;;;6.80;6.10;;;;;;;;;;4979423;28;20219;-82
2021/08/22 06:25:37;;;;;;;8.57;7.53;;;;;;;;;;5014648;28;20277;-82
2021/08/22 06:28:04;;;;;;;9.60;8.70;;;;;;;;;;4997279;28;20455;-83
2021/08/22 06:30:30;;;;;;;8.37;7.57;;;;;;;;;;4997775;28;20180;-83
2021/08/22 06:32:57;;;;;;;10.03;8.10;;;;;;;;;;4998114;28;20210;-83
2021/08/22 06:35:26;;;;;;;9.07;8.17;;;;;;;;;;5013411;28;20270;-84
2021/08/22 06:37:55;;;;;;;9.03;8.00;;;;;;;;;;4981639;28;20199;-83
2021/08/22 06:40:21;;;;;;;9.03;8.13;;;;;;;;;;4996728;28;20181;-81
2021/08/22 06:42:47;;;;;;;10.87;9.03;;;;;;;;;;4996743;28;20253;-81
2021/08/22 06:45:13;;;;;;;10.40;8.93;;;;;;;;;;4997250;28;20813;-81
2021/08/22 06:47:40;;;;;;;11.00;8.57;;;;;;;;;;4997399;28;20330;-81
2021/08/22 06:50:09;;;;;;;10.60;9.10;;;;;;;;;;5001584;28;20194;-81
2021/08/22 06:52:35;;;;;;;10.30;8.77;;;;;;;;;;4995292;28;20210;-81
2021/08/22 06:55:01;;;;;;;9.67;8.70;;;;;;;;;;5012799;28;20654;-81
2021/08/22 06:57:27;;;;;;;10.43;9.43;;;;;;;;;;5004091;28;20242;-81
2021/08/22 06:59:56;;;;;;;11.13;10.03;;;;;;;;;;5025755;28;20662;-82
2021/08/22 07:02:23;;;;;;;10.33;9.33;;;;;;;;;;5031020;28;20182;-81
2021/08/22 07:04:49;;;;;;;10.43;9.43;;;;;;;;;;5031368;28;20178;-82
2021/08/22 07:07:15;;;;;;;9.70;8.80;;;;;;;;;;5015400;28;20742;-82
2021/08/22 07:09:41;;;;;;;10.43;9.40;;;;;;;;;;5034670;28;20193;-80
2021/08/22 07:12:07;;;;;;;11.43;9.30;;;;;;;;;;5007199;28;20229;-82
2021/08/22 07:14:33;;;;;;;10.27;9.20;;;;;;;;;;5035114;28;20185;-81
2021/08/22 07:17:00;;;;;;;10.82;9.70;;;;;;;;;;5033880;28;20727;-81
2021/08/22 07:19:37;;;;;;;10.80;9.60;;;;;;;;;;5018003;28;20194;-81
2021/08/22 07:22:03;;;;;;;11.73;9.87;;;;;;;;;;5034875;28;20203;-81
2021/08/22 07:24:30;;;;;;;10.20;9.20;;;;;;;;;;5035082;28;20205;-81
2021/08/22 07:26:56;;;;;;;10.17;9.00;;;;;;;;;;5033067;28;20209;-81
2021/08/22 07:29:24;;;;;;;10.13;9.13;;;;;;;;;;5034337;28;20192;-82
2021/08/22 07:31:50;;;;;;;13.07;11.33;;;;;;;;;;5035476;28;20182;-85
2021/08/22 07:34:16;;;;;;;12.60;11.27;;;;;;;;;;5018160;28;20182;-83
2021/08/22 07:36:42;;;;;;;14.13;12.27;;;;;;;;;;5038759;28;20283;-84
2021/08/22 07:39:11;;;;;;;13.37;11.97;;;;;;;;;;5035363;28;20177;-83
2021/08/22 07:41:38;;;;;;;13.37;11.20;;;;;;;;;;5036536;28;20215;-85
2021/08/22 07:44:04;;;;;;;12.30;10.23;;;;;;;;;;5019627;28;20169;-81
2021/08/22 07:46:33;;;;;;;12.87;10.00;;;;;;;;;;5019678;28;20276;-84
2021/08/22 07:48:59;;;;;;;10.70;9.53;;;;;;;;;;5017477;28;20190;-84
2021/08/22 07:51:26;;;;;;;11.63;9.47;;;;;;;;;;5037384;28;20183;-85
2021/08/22 07:53:52;;;;;;;11.67;8.53;;;;;;;;;;5036955;28;20328;-83
2021/08/22 07:56:20;;;;;;;9.80;8.80;;;;;;;;;;5037573;28;20254;-83
2021/08/22 07:58:46;;;;;;;8.53;7.73;;;;;;;;;;5039513;28;20177;-84
2021/08/22 08:01:14;;;;;;;8.80;7.90;;;;;;;;;;5021264;28;20694;-84
2021/08/22 08:03:40;;;;;;;8.73;7.77;;;;;;;;;;5036678;28;20196;-84
2021/08/22 08:06:06;;;;;;;7.60;6.80;;;;;;;;;;5018348;28;20542;-84
2021/08/22 08:08:35;;;;;;;7.13;6.43;;;;;;;;;;5017340;28;20185;-87
2021/08/22 08:11:03;;;;;;;7.80;7.00;;;;;;;;;;5020947;28;20198;-84
2021/08/22 08:13:29;;;;;;;8.37;7.47;;;;;;;;;;5017932;28;20212;-84
2021/08/22 08:15:59;;;;;;;7.17;6.47;;;;;;;;;;5018980;28;20209;-83
2021/08/22 08:18:25;;;;;;;7.90;6.53;;;;;;;;;;5021009;28;20273;-83
2021/08/22 08:20:51;;;;;;;7.17;6.47;;;;;;;;;;5030945;28;20252;-83
2021/08/22 08:23:17;;;;;;;10.03;6.03;;;;;;;;;;5017042;28;20487;-83
2021/08/22 08:25:43;;;;;;;7.83;6.73;;;;;;;;;;5025155;28;20182;-84
2021/08/22 08:28:10;;;;;;;6.50;5.90;;;;;;;;;;5033139;28;20190;-83
2021/08/22 08:30:37;;;;;;;6.17;5.57;;;;;;;;;;5036139;28;20231;-81
2021/08/22 08:33:03;;;;;;;7.77;6.40;;;;;;;;;;5017136;28;20309;-82
2021/08/22 08:35:29;;;;;;;6.57;5.73;;;;;;;;;;5014607;28;20610;-82
2021/08/22 08:37:55;;;;;;;6.87;5.67;;;;;;;;;;5030443;28;20185;-82
2021/08/22 08:40:22;;;;;;;6.37;5.13;;;;;;;;;;5012337;28;20189;-81
2021/08/22 08:42:51;;;;;;;6.53;5.20;;;;;;;;;;5015549;28;20182;-82
2021/08/22 08:45:37;;;;;;;7.83;5.33;;;;;;;;;;5017145;28;20529;-82
2021/08/22 08:48:04;;;;;;;6.97;5.73;;;;;;;;;;4993413;28;20633;-82
2021/08/22 08:50:32;;;;;;;8.80;6.30;;;;;;;;;;5013732;28;20526;-82
2021/08/22 08:53:05;;;;;;;10.47;5.87;;;;;;;;;;5030241;28;20736;-82
2021/08/22 08:55:31;;;;;;;5.87;5.27;;;;;;;;;;5032199;28;20182;-81
2021/08/22 08:57:58;;;;;;;5.90;5.30;;;;;;;;;;5014529;28;20213;-82
2021/08/22 09:00:28;;;;;;;7.00;5.73;;;;;;;;;;5030089;28;20185;-82
2021/08/22 09:02:56;;;;;;;6.50;5.43;;;;;;;;;;5014096;28;20178;-82
2021/08/22 09:05:26;;;;;;;5.60;5.10;;;;;;;;;;5028757;28;20259;-82
2021/08/22 09:08:11;;;;;;;6.47;5.87;;;;;;;;;;5013600;28;20197;-83
2021/08/22 09:10:56;;;;;;;5.30;4.60;;;;;;;;;;5019318;28;20604;-82
2021/08/22 09:13:40;;;;;;;6.03;5.40;;;;;;;;;;5013779;28;20191;-82
2021/08/22 09:16:26;;;;;;;5.67;5.17;;;;;;;;;;5023563;28;20173;-82
2021/08/22 09:19:11;;;;;;;6.67;5.97;;;;;;;;;;5016121;28;20178;-82
2021/08/22 09:21:52;;;;;;;5.37;4.87;;;;;;;;;;5019565;28;20185;-82
2021/08/22 09:24:37;;;;;;;6.07;5.47;;;;;;;;;;5036298;28;20604;-81
2021/08/22 09:27:32;;;;;;;6.23;5.63;;;;;;;;;;5036554;28;20180;-84
2021/08/22 09:30:17;;;;;;;5.70;5.20;;;;;;;;;;5000292;28;20193;-82
2021/08/22 09:33:02;;;;;;;5.37;4.87;;;;;;;;;;5036987;28;20202;-82
2021/08/22 09:35:47;;;;;;;5.97;5.37;;;;;;;;;;5036130;28;20629;-86
2021/08/22 09:38:16;;;;;;;5.20;4.50;;;;;;;;;;5037260;28;20238;-85
2021/08/22 09:41:01;;;;;;;5.53;4.70;;;;;;;;;;5032930;28;20224;-84
2021/08/22 09:43:46;;;;;;;6.37;5.30;;;;;;;;;;5019833;28;20191;-83
2021/08/22 09:46:31;;;;;;;7.37;5.40;;;;;;;;;;5034798;28;20580;-86
2021/08/22 09:49:18;;;;;;;6.60;4.33;;;;;;;;;;5035562;28;20247;-87
2021/08/22 09:52:04;;;;;;;4.77;4.13;;;;;;;;;;5012464;28;20276;-87
2021/08/22 09:54:49;;;;;;;5.23;4.40;;;;;;;;;;5038028;28;20209;-87
2021/08/22 09:57:35;;;;;;;6.70;4.53;;;;;;;;;;5014284;28;20219;-87
2021/08/22 10:00:19;;;;;;;4.40;4.00;;;;;;;;;;5006858;28;20185;-86
2021/08/22 10:02:54;;;;;;;4.93;4.10;;;;;;;;;;5017904;28;20477;-85
2021/08/22 10:05:34;;;;;;;4.20;3.60;;;;;;;;;;5012412;28;20246;-83
2021/08/22 10:08:09;;;;;;;4.57;3.43;;;;;;;;;;5014270;28;20198;-80
2021/08/22 10:10:50;;;;;;;3.57;3.27;;;;;;;;;;5001249;28;20252;-79
2021/08/22 10:13:20;;;;;;;4.30;3.77;;;;;;;;;;5020539;28;20200;-83
2021/08/22 10:15:47;;;;;;;5.07;3.10;;;;;;;;;;4996225;28;20168;-84
2021/08/22 10:18:20;;;;;;;5.03;3.10;;;;;;;;;;5019038;28;20185;-84
2021/08/22 10:20:47;;;;;;;6.67;3.80;;;;;;;;;;5015828;28;20182;-84
2021/08/22 10:23:47;;;;;;;6.53;3.40;;;;;;;;;;5019514;28;20240;-85
2021/08/22 10:26:34;;;;;;;4.10;3.13;;;;;;;;;;5000753;28;20174;-84
2021/08/22 10:29:04;;;;;;;4.17;3.13;;;;;;;;;;5003290;28;20187;-81
2021/08/22 10:32:02;;;;;;;3.77;3.10;;;;;;;;;;5002791;28;20193;-84
2021/08/22 10:34:29;;;;;;;6.17;3.37;;;;;;;;;;5001462;28;20650;-81
2021/08/22 10:36:55;;;;;;;4.37;3.40;;;;;;;;;;5007811;28;20221;-81
2021/08/22 10:39:27;;;;;;;4.37;3.60;;;;;;;;;;5016236;28;20221;-81
2021/08/22 10:41:57;;;;;;;4.13;3.73;;;;;;;;;;5006799;28;20209;-79
2021/08/22 10:44:33;;;;;;;6.17;3.40;;;;;;;;;;5001147;28;20182;-82
2021/08/22 10:47:00;;;;;;;5.63;2.97;;;;;;;;;;5004997;28;20258;-82
2021/08/22 10:49:45;;;;;;;3.97;3.40;;;;;;;;;;5005618;28;20174;-82
2021/08/22 10:52:26;;;;;;;3.73;3.00;;;;;;;;;;5017450;28;20206;-83
2021/08/22 10:55:11;;;;;;;5.83;3.80;;;;;;;;;;5015290;28;20174;-83
2021/08/22 10:57:49;;;;;;;3.30;3.00;;;;;;;;;;5026557;28;20287;-82
2021/08/22 11:00:22;;;;;;;5.90;3.70;;;;;;;;;;5037455;28;20184;-85
2021/08/22 11:02:59;;;;;;;3.50;3.07;;;;;;;;;;5020603;28;20675;-84
2021/08/22 11:05:33;;;;;;;5.20;3.17;;;;;;;;;;5040579;28;20197;-84
2021/08/22 11:08:18;;;;;;;4.90;3.53;;;;;;;;;;5019294;28;20209;-84
2021/08/22 11:10:59;;;;;;;6.03;3.00;;;;;;;;;;5022188;28;20181;-83
2021/08/22 11:13:29;;;;;;;4.63;3.10;;;;;;;;;;5036950;28;20228;-84
2021/08/22 11:15:55;;;;;;;5.87;3.70;;;;;;;;;;5035528;28;20169;-83
2021/08/22 11:18:22;;;;;;;4.03;3.20;;;;;;;;;;5032781;28;20249;-84
2021/08/22 11:20:51;;;;;;;4.77;3.13;;;;;;;;;;5035016;28;20294;-83
2021/08/22 11:23:21;;;;;;;5.97;3.17;;;;;;;;;;5036806;28;20184;-83
2021/08/22 11:25:51;;;;;;;4.20;2.80;;;;;;;;;;5041882;28;20173;-83
2021/08/22 11:28:19;;;;;;;5.90;3.10;;;;;;;;;;5035481;28;20178;-81
2021/08/22 11:30:45;;;;;;;4.57;3.30;;;;;;;;;;5022476;28;20192;-83
2021/08/22 11:33:12;;;;;;;4.43;3.30;;;;;;;;;;5038682;28;20190;-81
2021/08/22 11:35:46;;;;;;;5.33;3.63;;;;;;;;;;5038508;28;20233;-81
2021/08/22 11:38:13;;;;;;;5.33;3.00;;;;;;;;;;5035419;28;20198;-82
2021/08/22 11:40:39;;;;;;;4.63;3.43;;;;;;;;;;5036671;28;20651;-82
2021/08/22 11:43:07;;;;;;;4.70;3.73;;;;;;;;;;5034713;28;20223;-81
2021/08/22 11:45:36;;;;;;;7.77;3.00;;;;;;;;;;5019366;28;20215;-81
2021/08/22 11:48:04;;;;;;;3.93;2.97;;;;;;;;;;5036330;28;20184;-82
2021/08/22 11:50:32;;;;;;;4.57;3.00;;;;;;;;;;5038890;28;20191;-80
2021/08/22 11:52:59;;;;;;;5.13;3.40;;;;;;;;;;5035768;28;20204;-82
2021/08/22 11:55:31;;;;;;;6.40;3.80;;;;;;;;;;5038461;28;20243;-82
2021/08/22 11:58:17;;;;;;;5.00;3.83;;;;;;;;;;5020431;28;20244;-81
2021/08/22 12:00:47;;;;;;;7.10;3.43;;;;;;;;;;5035032;28;20185;-82
2021/08/22 12:03:15;;;;;;;4.90;3.30;;;;;;;;;;5029138;28;20186;-82
2021/08/22 12:05:54;;;;;;;5.00;3.30;;;;;;;;;;5023900;28;20184;-81
2021/08/22 12:08:20;;;;;;;6.60;3.47;;;;;;;;;;5039693;28;20194;-82
2021/08/22 12:10:53;;;;;;;6.90;4.10;;;;;;;;;;5032301;28;20182;-82
2021/08/22 12:13:23;;;;;;;3.87;3.43;;;;;;;;;;5044373;28;20209;-83
2021/08/22 12:15:53;;;;;;;4.67;3.20;;;;;;;;;;5013449;28;20181;-82
2021/08/22 12:18:20;;;;;;;5.43;3.43;;;;;;;;;;5020604;28;20706;-83
2021/08/22 12:20:50;;;;;;;4.83;2.97;;;;;;;;;;5021065;28;20172;-81
2021/08/22 12:23:17;;;;;;;4.23;3.27;;;;;;;;;;5020712;28;20254;-82
2021/08/22 12:25:43;;;;;;;4.57;3.23;;;;;;;;;;5015029;28;20190;-81
2021/08/22 12:28:23;;;;;;;3.57;2.80;;;;;;;;;;5020623;28;20175;-81
2021/08/22 12:31:00;;;;;;;5.03;3.00;;;;;;;;;;5017470;28;20660;-81
2021/08/22 12:33:31;;;;;;;4.03;3.20;;;;;;;;;;5035127;28;20205;-80
2021/08/22 12:36:04;;;;;;;7.27;3.07;;;;;;;;;;5019966;28;20206;-80
2021/08/22 12:38:43;;;;;;;6.03;3.33;;;;;;;;;;5036856;28;20182;-81
2021/08/22 12:41:22;;;;;;;3.03;2.77;;;;;;;;;;5030621;28;20198;-80
2021/08/22 12:43:49;;;;;;;3.03;2.43;;;;;;;;;;5004580;28;20830;-81
2021/08/22 12:46:15;;;;;;;4.53;3.70;;;;;;;;;;5017039;28;20206;-81
2021/08/22 12:48:41;;;;;;;4.07;3.10;;;;;;;;;;5036529;28;20173;-81
2021/08/22 12:51:10;;;;;;;7.97;3.90;;;;;;;;;;5035860;28;20178;-81
2021/08/22 12:53:36;;;;;;;6.00;3.33;;;;;;;;;;5032593;28;20269;-81
2021/08/22 12:56:03;;;;;;;6.60;3.20;;;;;;;;;;5037463;28;20729;-82
2021/08/22 12:58:30;;;;;;;5.20;3.57;;;;;;;;;;5037724;28;20248;-83
2021/08/22 13:01:00;;;;;;;5.00;4.00;;;;;;;;;;5029593;28;20522;-81
2021/08/22 13:03:26;;;;;;;6.93;4.27;;;;;;;;;;5038542;28;20272;-81
2021/08/22 13:05:52;;;;;;;8.20;5.10;;;;;;;;;;5039105;28;20539;-82
2021/08/22 13:08:21;;;;;;;7.80;4.80;;;;;;;;;;5038655;28;20185;-82
2021/08/22 13:10:47;;;;;;;5.07;3.50;;;;;;;;;;5022265;28;20207;-82
2021/08/22 13:13:13;;;;;;;5.37;4.10;;;;;;;;;;5021209;28;20726;-83
2021/08/22 13:15:42;;;;;;;5.43;3.60;;;;;;;;;;5020835;28;20182;-82
2021/08/22 13:18:09;;;;;;;4.00;3.40;;;;;;;;;;5037489;28;20193;-82
2021/08/22 13:20:35;;;;;;;3.97;3.03;;;;;;;;;;5006613;28;20209;-82
2021/08/22 13:23:01;;;;;;;5.63;3.67;;;;;;;;;;5024834;28;20191;-82
2021/08/22 13:25:29;;;;;;;5.57;3.57;;;;;;;;;;5021721;28;20190;-82
2021/08/22 13:27:55;;;;;;;3.53;2.97;;;;;;;;;;5021708;28;20523;-82
2021/08/22 13:30:23;;;;;;;5.17;3.37;;;;;;;;;;5038276;28;20192;-82
2021/08/22 13:32:49;;;;;;;3.20;2.63;;;;;;;;;;5022683;28;20205;-82
2021/08/22 13:35:16;;;;;;;3.83;2.80;;;;;;;;;;5020819;28;20175;-82
2021/08/22 13:37:42;;;;;;;3.00;2.70;;;;;;;;;;5021962;28;20188;-82
2021/08/22 13:40:08;;;;;;;4.43;3.10;;;;;;;;;;5021540;28;20238;-82
2021/08/22 13:42:35;;;;;;;3.80;3.40;;;;;;;;;;5023566;28;20668;-82
2021/08/22 13:45:01;;;;;;;3.67;2.97;;;;;;;;;;5041247;28;20242;-83
2021/08/22 13:47:27;;;;;;;4.30;2.80;;;;;;;;;;5023146;28;20190;-82
2021/08/22 13:49:53;;;;;;;4.90;3.27;;;;;;;;;;5039846;28;20194;-82
2021/08/22 13:52:19;;;;;;;3.30;2.67;;;;;;;;;;5040282;28;20559;-82
2021/08/22 13:54:46;;;;;;;6.70;3.90;;;;;;;;;;5023147;28;20193;-82
2021/08/22 13:57:12;;;;;;;5.77;3.30;;;;;;;;;;5040583;28;20216;-82
2021/08/22 13:59:38;;;;;;;4.43;3.03;;;;;;;;;;5026013;28;20180;-82
2021/08/22 14:02:06;;;;;;;3.70;3.03;;;;;;;;;;5023010;28;20465;-82
2021/08/22 14:04:32;;;;;;;4.73;3.20;;;;;;;;;;5022290;28;20184;-81
2021/08/22 14:06:59;;;;;;;3.53;3.23;;;;;;;;;;5040842;28;20206;-82
2021/08/22 14:09:25;;;;;;;3.17;2.83;;;;;;;;;;5041589;28;20179;-81
2021/08/22 14:11:57;;;;;;;3.27;2.97;;;;;;;;;;5025840;28;20175;-84
2021/08/22 14:14:27;;;;;;;4.93;2.93;;;;;;;;;;5040724;28;20207;-82
2021/08/22 14:16:56;;;;;;;8.07;2.90;;;;;;;;;;5025825;28;20246;-82
2021/08/22 14:19:22;;;;;;;3.47;3.03;;;;;;;;;;5024219;28;20190;-82
2021/08/22 14:21:51;;;;;;;5.50;2.73;;;;;;;;;;5025979;28;20198;-82
2021/08/22 14:24:18;;;;;;;3.60;2.40;;;;;;;;;;5037038;28;20212;-82
2021/08/22 14:26:44;;;;;;;4.60;2.77;;;;;;;;;;5018224;28;20182;-82
2021/08/22 14:29:10;;;;;;;3.00;2.30;;;;;;;;;;5031450;28;20186;-83
2021/08/22 14:31:42;;;;;;;2.43;2.23;;;;;;;;;;5045090;28;20182;-82
2021/08/22 14:34:08;;;;;;;3.17;2.13;;;;;;;;;;5021969;28;20225;-82
2021/08/22 14:36:36;;;;;;;3.23;2.10;;;;;;;;;;5034329;28;20525;-82
2021/08/22 14:39:03;;;;;;;2.30;2.00;;;;;;;;;;5019395;28;20188;-82
2021/08/22 14:41:29;;;;;;;2.83;1.97;;;;;;;;;;5030691;28;20170;-82
2021/08/22 14:43:56;;;;;;;2.20;2.00;;;;;;;;;;5020165;28;20182;-82
2021/08/22 14:46:22;;;;;;;2.93;1.87;;;;;;;;;;5023318;28;20186;-82
2021/08/22 14:48:49;;;;;;;3.33;2.23;;;;;;;;;;5022718;28;20189;-82
2021/08/22 14:51:15;;;;;;;2.17;1.70;;;;;;;;;;5022212;28;20182;-82
2021/08/22 14:53:44;;;;;;;2.60;1.57;;;;;;;;;;5021295;28;20214;-82